sensor_id;sensor_type;location;lat;lon;timestamp;temperature;humidity
17762;DHT22;9005;48.838;10.112;2023-05-23T00:00:40;15.80;99.90
17762;DHT22;9005;48.838;10.112;2023-05-23T00:03:07;15.80;99.90
17762;DHT22;9005;48.838;10.112;2023-05-23T00:05:35;15.80;99.90
17762;DHT22;9005;48.838;10.112;2023-05-23T00:08:02;15.80;99.90
17762;DHT22;9005;48.838;10.112;2023-05-23T00:10:28;15.70;99.90
17762;DHT22;9005;48.838;10.112;2023-05-23T00:12:56;15.70;99.90
17762;DHT22;9005;48.838;10.112;2023-05-23T00:15:23;15.80;99.90
17762;DHT22;9005;48.838;10.112;2023-05-23T00:17:50;15.70;99.90
17762;DHT22;9005;48.838;10.112;2023-05-23T00:20:17;15.70;99.90
17762;DHT22;9005;48.838;10.112;2023-05-23T00:22:45;15.70;99.90
17762;DHT22;9005;48.838;10.112;2023-05-23T00:25:12;15.70;99.90
17762;DHT22;9005;48.838;10.112;2023-05-23T00:27:39;15.60;99.90
17762;DHT22;9005;48.838;10.112;2023-05-23T00:30:08;15.60;99.90
17762;DHT22;9005;48.838;10.112;2023-05-23T00:32:35;15.50;99.90
17762;DHT22;9005;48.838;10.112;2023-05-23T00:35:02;15.50;99.90
17762;DHT22;9005;48.838;10.112;2023-05-23T00:37:29;15.50;99.90
17762;DHT22;9005;48.838;10.112;2023-05-23T00:39:56;15.40;99.90
17762;DHT22;9005;48.838;10.112;2023-05-23T00:42:23;15.30;99.90
17762;DHT22;9005;48.838;10.112;2023-05-23T00:44:50;15.30;99.90
17762;DHT22;9005;48.838;10.112;2023-05-23T00:47:18;15.20;99.90
17762;DHT22;9005;48.838;10.112;2023-05-23T00:49:45;15.20;99.90
17762;DHT22;9005;48.838;10.112;2023-05-23T00:54:39;15.10;99.90
17762;DHT22;9005;48.838;10.112;2023-05-23T00:57:06;15.00;99.90
17762;DHT22;9005;48.838;10.112;2023-05-23T00:59:35;15.00;99.90
17762;DHT22;9005;48.838;10.112;2023-05-23T01:02:03;14.90;99.90
17762;DHT22;9005;48.838;10.112;2023-05-23T01:04:31;14.90;99.90
17762;DHT22;9005;48.838;10.112;2023-05-23T01:06:59;15.30;99.90
17762;DHT22;9005;48.838;10.112;2023-05-23T01:09:27;15.00;99.90
17762;DHT22;9005;48.838;10.112;2023-05-23T01:12:01;15.00;99.90
17762;DHT22;9005;48.838;10.112;2023-05-23T01:14:37;15.00;99.90
17762;DHT22;9005;48.838;10.112;2023-05-23T01:17:12;15.00;99.90
17762;DHT22;9005;48.838;10.112;2023-05-23T01:19:51;15.00;99.90
17762;DHT22;9005;48.838;10.112;2023-05-23T01:22:40;15.00;99.90
17762;DHT22;9005;48.838;10.112;2023-05-23T01:25:26;14.90;99.90
17762;DHT22;9005;48.838;10.112;2023-05-23T01:27:58;14.80;99.90
17762;DHT22;9005;48.838;10.112;2023-05-23T01:30:29;14.80;99.90
17762;DHT22;9005;48.838;10.112;2023-05-23T01:32:58;14.80;99.90
17762;DHT22;9005;48.838;10.112;2023-05-23T01:35:26;14.70;99.90
17762;DHT22;9005;48.838;10.112;2023-05-23T01:37:53;14.70;99.90
17762;DHT22;9005;48.838;10.112;2023-05-23T01:40:21;14.70;99.90
17762;DHT22;9005;48.838;10.112;2023-05-23T01:42:48;14.70;99.90
17762;DHT22;9005;48.838;10.112;2023-05-23T01:45:16;14.70;99.90
17762;DHT22;9005;48.838;10.112;2023-05-23T01:47:43;14.70;99.90
17762;DHT22;9005;48.838;10.112;2023-05-23T01:50:12;14.70;99.90
17762;DHT22;9005;48.838;10.112;2023-05-23T01:52:39;14.70;99.90
17762;DHT22;9005;48.838;10.112;2023-05-23T01:55:08;14.60;99.90
17762;DHT22;9005;48.838;10.112;2023-05-23T01:57:37;14.60;99.90
17762;DHT22;9005;48.838;10.112;2023-05-23T02:00:05;14.50;99.90
17762;DHT22;9005;48.838;10.112;2023-05-23T02:02:34;14.40;99.90
17762;DHT22;9005;48.838;10.112;2023-05-23T02:05:00;14.40;99.90
17762;DHT22;9005;48.838;10.112;2023-05-23T02:07:27;14.30;99.90
17762;DHT22;9005;48.838;10.112;2023-05-23T02:09:54;14.30;99.90
17762;DHT22;9005;48.838;10.112;2023-05-23T02:12:21;14.40;99.90
17762;DHT22;9005;48.838;10.112;2023-05-23T02:14:48;14.40;99.90
17762;DHT22;9005;48.838;10.112;2023-05-23T02:17:16;14.40;99.90
17762;DHT22;9005;48.838;10.112;2023-05-23T02:19:44;14.50;99.90
17762;DHT22;9005;48.838;10.112;2023-05-23T02:22:11;14.50;99.90
17762;DHT22;9005;48.838;10.112;2023-05-23T02:24:38;14.40;99.90
17762;DHT22;9005;48.838;10.112;2023-05-23T02:27:04;14.50;99.90
17762;DHT22;9005;48.838;10.112;2023-05-23T02:29:31;14.50;99.90
17762;DHT22;9005;48.838;10.112;2023-05-23T02:31:58;14.60;99.90
17762;DHT22;9005;48.838;10.112;2023-05-23T02:34:25;14.60;99.90
17762;DHT22;9005;48.838;10.112;2023-05-23T02:36:53;14.70;99.90
17762;DHT22;9005;48.838;10.112;2023-05-23T02:39:20;14.70;99.90
17762;DHT22;9005;48.838;10.112;2023-05-23T02:41:46;14.70;99.90
17762;DHT22;9005;48.838;10.112;2023-05-23T02:44:13;14.70;99.90
17762;DHT22;9005;48.838;10.112;2023-05-23T02:46:40;14.60;99.90
17762;DHT22;9005;48.838;10.112;2023-05-23T02:49:07;14.60;99.90
17762;DHT22;9005;48.838;10.112;2023-05-23T02:51:33;14.60;99.90
17762;DHT22;9005;48.838;10.112;2023-05-23T02:54:01;14.60;99.90
17762;DHT22;9005;48.838;10.112;2023-05-23T02:56:28;14.50;99.90
17762;DHT22;9005;48.838;10.112;2023-05-23T02:58:55;14.60;99.90
17762;DHT22;9005;48.838;10.112;2023-05-23T03:01:21;14.60;99.90
17762;DHT22;9005;48.838;10.112;2023-05-23T03:03:48;14.60;99.90
17762;DHT22;9005;48.838;10.112;2023-05-23T03:06:15;14.60;99.90
17762;DHT22;9005;48.838;10.112;2023-05-23T03:08:42;14.60;99.90
17762;DHT22;9005;48.838;10.112;2023-05-23T03:11:10;14.60;99.90
17762;DHT22;9005;48.838;10.112;2023-05-23T03:13:37;14.60;99.90
17762;DHT22;9005;48.838;10.112;2023-05-23T03:16:04;14.70;99.90
17762;DHT22;9005;48.838;10.112;2023-05-23T03:18:31;14.70;99.90
17762;DHT22;9005;48.838;10.112;2023-05-23T03:20:57;14.70;99.90
17762;DHT22;9005;48.838;10.112;2023-05-23T03:23:24;14.80;99.90
17762;DHT22;9005;48.838;10.112;2023-05-23T03:25:51;14.80;99.90
17762;DHT22;9005;48.838;10.112;2023-05-23T03:28:19;14.80;99.90
17762;DHT22;9005;48.838;10.112;2023-05-23T03:30:45;14.80;99.90
17762;DHT22;9005;48.838;10.112;2023-05-23T03:33:12;14.90;99.90
17762;DHT22;9005;48.838;10.112;2023-05-23T03:35:39;14.90;99.90
17762;DHT22;9005;48.838;10.112;2023-05-23T03:38:06;14.90;99.90
17762;DHT22;9005;48.838;10.112;2023-05-23T03:40:33;14.90;99.90
17762;DHT22;9005;48.838;10.112;2023-05-23T03:43:04;15.00;99.90
17762;DHT22;9005;48.838;10.112;2023-05-23T03:45:32;15.00;99.90
17762;DHT22;9005;48.838;10.112;2023-05-23T03:47:59;15.00;99.90
17762;DHT22;9005;48.838;10.112;2023-05-23T03:50:26;15.00;99.90
17762;DHT22;9005;48.838;10.112;2023-05-23T03:52:53;15.00;99.90
17762;DHT22;9005;48.838;10.112;2023-05-23T03:55:20;15.00;99.90
17762;DHT22;9005;48.838;10.112;2023-05-23T03:57:48;15.10;99.90
17762;DHT22;9005;48.838;10.112;2023-05-23T04:00:15;15.10;99.90
17762;DHT22;9005;48.838;10.112;2023-05-23T04:02:45;15.10;99.90
17762;DHT22;9005;48.838;10.112;2023-05-23T04:05:12;15.10;99.90
17762;DHT22;9005;48.838;10.112;2023-05-23T04:07:38;15.10;99.90
17762;DHT22;9005;48.838;10.112;2023-05-23T04:10:07;15.10;99.90
17762;DHT22;9005;48.838;10.112;2023-05-23T04:12:34;15.10;99.90
17762;DHT22;9005;48.838;10.112;2023-05-23T04:15:01;15.10;99.90
17762;DHT22;9005;48.838;10.112;2023-05-23T04:17:28;15.10;99.90
17762;DHT22;9005;48.838;10.112;2023-05-23T04:19:57;15.10;99.90
17762;DHT22;9005;48.838;10.112;2023-05-23T04:22:24;15.10;99.90
17762;DHT22;9005;48.838;10.112;2023-05-23T04:24:51;15.10;99.90
17762;DHT22;9005;48.838;10.112;2023-05-23T04:27:17;15.00;99.90
17762;DHT22;9005;48.838;10.112;2023-05-23T04:29:44;15.10;99.90
17762;DHT22;9005;48.838;10.112;2023-05-23T04:32:11;15.10;99.90
17762;DHT22;9005;48.838;10.112;2023-05-23T04:34:39;15.10;99.90
17762;DHT22;9005;48.838;10.112;2023-05-23T04:37:08;15.10;99.90
17762;DHT22;9005;48.838;10.112;2023-05-23T04:39:34;15.10;99.90
17762;DHT22;9005;48.838;10.112;2023-05-23T04:42:01;15.20;99.90
17762;DHT22;9005;48.838;10.112;2023-05-23T04:44:28;15.10;99.90
17762;DHT22;9005;48.838;10.112;2023-05-23T04:46:55;15.10;99.90
17762;DHT22;9005;48.838;10.112;2023-05-23T04:49:22;15.10;99.90
17762;DHT22;9005;48.838;10.112;2023-05-23T04:51:48;15.10;99.90
17762;DHT22;9005;48.838;10.112;2023-05-23T04:54:16;15.10;99.90
17762;DHT22;9005;48.838;10.112;2023-05-23T04:56:43;15.10;99.90
17762;DHT22;9005;48.838;10.112;2023-05-23T04:59:10;15.10;99.90
17762;DHT22;9005;48.838;10.112;2023-05-23T05:01:37;15.00;99.90
17762;DHT22;9005;48.838;10.112;2023-05-23T05:04:04;15.10;99.90
17762;DHT22;9005;48.838;10.112;2023-05-23T05:06:31;15.10;99.90
17762;DHT22;9005;48.838;10.112;2023-05-23T05:08:58;15.10;99.90
17762;DHT22;9005;48.838;10.112;2023-05-23T05:11:26;15.10;99.90
17762;DHT22;9005;48.838;10.112;2023-05-23T05:13:53;15.10;99.90
17762;DHT22;9005;48.838;10.112;2023-05-23T05:16:20;15.10;99.90
17762;DHT22;9005;48.838;10.112;2023-05-23T05:18:47;15.20;99.90
17762;DHT22;9005;48.838;10.112;2023-05-23T05:21:14;15.20;99.90
17762;DHT22;9005;48.838;10.112;2023-05-23T05:23:41;15.30;99.90
17762;DHT22;9005;48.838;10.112;2023-05-23T05:26:08;15.30;99.90
17762;DHT22;9005;48.838;10.112;2023-05-23T05:28:36;15.40;99.90
17762;DHT22;9005;48.838;10.112;2023-05-23T05:31:03;15.40;99.90
17762;DHT22;9005;48.838;10.112;2023-05-23T05:33:30;15.40;99.90
17762;DHT22;9005;48.838;10.112;2023-05-23T05:36:00;15.40;99.90
17762;DHT22;9005;48.838;10.112;2023-05-23T05:38:27;15.40;99.90
17762;DHT22;9005;48.838;10.112;2023-05-23T05:40:54;15.40;99.90
17762;DHT22;9005;48.838;10.112;2023-05-23T05:43:20;15.40;99.90
17762;DHT22;9005;48.838;10.112;2023-05-23T05:45:48;15.40;99.90
17762;DHT22;9005;48.838;10.112;2023-05-23T05:48:15;15.50;99.90
17762;DHT22;9005;48.838;10.112;2023-05-23T05:50:42;15.50;99.90
17762;DHT22;9005;48.838;10.112;2023-05-23T05:53:09;15.50;99.90
17762;DHT22;9005;48.838;10.112;2023-05-23T05:55:37;15.50;99.90
17762;DHT22;9005;48.838;10.112;2023-05-23T05:58:04;15.50;99.90
17762;DHT22;9005;48.838;10.112;2023-05-23T06:00:30;15.60;99.90
17762;DHT22;9005;48.838;10.112;2023-05-23T06:02:58;15.60;99.90
17762;DHT22;9005;48.838;10.112;2023-05-23T06:05:25;15.60;99.90
17762;DHT22;9005;48.838;10.112;2023-05-23T06:07:52;15.60;99.90
17762;DHT22;9005;48.838;10.112;2023-05-23T06:10:19;15.70;99.90
17762;DHT22;9005;48.838;10.112;2023-05-23T06:12:45;15.80;99.90
17762;DHT22;9005;48.838;10.112;2023-05-23T06:15:12;15.90;99.90
17762;DHT22;9005;48.838;10.112;2023-05-23T06:17:40;16.10;99.90
17762;DHT22;9005;48.838;10.112;2023-05-23T06:20:09;16.10;99.90
17762;DHT22;9005;48.838;10.112;2023-05-23T06:22:36;16.30;99.90
17762;DHT22;9005;48.838;10.112;2023-05-23T06:25:04;16.40;99.90
17762;DHT22;9005;48.838;10.112;2023-05-23T06:27:31;16.60;99.90
17762;DHT22;9005;48.838;10.112;2023-05-23T06:29:58;16.60;99.90
17762;DHT22;9005;48.838;10.112;2023-05-23T06:32:25;16.70;99.90
17762;DHT22;9005;48.838;10.112;2023-05-23T06:34:51;16.70;99.90
17762;DHT22;9005;48.838;10.112;2023-05-23T06:37:21;16.70;99.90
17762;DHT22;9005;48.838;10.112;2023-05-23T06:39:47;16.70;99.90
17762;DHT22;9005;48.838;10.112;2023-05-23T07:09:13;16.70;99.90
17762;DHT22;9005;48.838;10.112;2023-05-23T07:11:41;16.60;99.90
17762;DHT22;9005;48.838;10.112;2023-05-23T07:14:08;16.60;99.90
17762;DHT22;9005;48.838;10.112;2023-05-23T07:16:35;16.70;99.90
17762;DHT22;9005;48.838;10.112;2023-05-23T07:19:01;17.00;99.90
17762;DHT22;9005;48.838;10.112;2023-05-23T07:21:29;17.30;99.90
17762;DHT22;9005;48.838;10.112;2023-05-23T07:23:56;17.40;99.90
17762;DHT22;9005;48.838;10.112;2023-05-23T07:26:23;17.50;99.90
17762;DHT22;9005;48.838;10.112;2023-05-23T07:28:51;17.60;99.90
17762;DHT22;9005;48.838;10.112;2023-05-23T07:31:18;17.50;99.90
17762;DHT22;9005;48.838;10.112;2023-05-23T07:33:44;17.30;99.90
17762;DHT22;9005;48.838;10.112;2023-05-23T07:36:11;17.20;99.90
17762;DHT22;9005;48.838;10.112;2023-05-23T07:38:38;17.10;99.90
17762;DHT22;9005;48.838;10.112;2023-05-23T07:41:04;17.10;99.90
17762;DHT22;9005;48.838;10.112;2023-05-23T07:43:31;17.10;99.90
17762;DHT22;9005;48.838;10.112;2023-05-23T07:45:59;17.10;99.90
17762;DHT22;9005;48.838;10.112;2023-05-23T07:48:26;17.10;99.90
17762;DHT22;9005;48.838;10.112;2023-05-23T07:50:52;17.10;99.90
17762;DHT22;9005;48.838;10.112;2023-05-23T07:53:20;17.10;99.90
17762;DHT22;9005;48.838;10.112;2023-05-23T07:55:47;17.10;99.90
17762;DHT22;9005;48.838;10.112;2023-05-23T07:58:13;17.10;99.90
17762;DHT22;9005;48.838;10.112;2023-05-23T08:00:40;17.20;99.90
17762;DHT22;9005;48.838;10.112;2023-05-23T08:03:10;17.30;99.90
17762;DHT22;9005;48.838;10.112;2023-05-23T08:05:37;17.30;99.90
17762;DHT22;9005;48.838;10.112;2023-05-23T08:08:04;17.40;99.90
17762;DHT22;9005;48.838;10.112;2023-05-23T08:10:31;17.30;99.90
17762;DHT22;9005;48.838;10.112;2023-05-23T08:12:58;17.40;99.90
17762;DHT22;9005;48.838;10.112;2023-05-23T08:15:28;17.60;99.90
17762;DHT22;9005;48.838;10.112;2023-05-23T08:17:55;17.90;98.40
17762;DHT22;9005;48.838;10.112;2023-05-23T08:20:24;18.20;50.00
17762;DHT22;9005;48.838;10.112;2023-05-23T08:22:56;18.60;1.00
17762;DHT22;9005;48.838;10.112;2023-05-23T08:25:23;18.90;1.00
17762;DHT22;9005;48.838;10.112;2023-05-23T08:27:50;18.90;1.00
17762;DHT22;9005;48.838;10.112;2023-05-23T08:30:17;18.80;1.00
17762;DHT22;9005;48.838;10.112;2023-05-23T08:32:47;18.80;1.00
17762;DHT22;9005;48.838;10.112;2023-05-23T08:35:14;18.80;1.00
17762;DHT22;9005;48.838;10.112;2023-05-23T08:37:42;18.80;1.00
17762;DHT22;9005;48.838;10.112;2023-05-23T08:40:13;18.80;1.00
17762;DHT22;9005;48.838;10.112;2023-05-23T08:42:39;18.80;1.00
17762;DHT22;9005;48.838;10.112;2023-05-23T08:45:08;18.80;1.00
17762;DHT22;9005;48.838;10.112;2023-05-23T08:47:36;18.70;1.00
17762;DHT22;9005;48.838;10.112;2023-05-23T08:50:05;18.70;1.00
17762;DHT22;9005;48.838;10.112;2023-05-23T08:52:33;18.90;1.00
17762;DHT22;9005;48.838;10.112;2023-05-23T08:55:02;19.10;1.00
17762;DHT22;9005;48.838;10.112;2023-05-23T08:57:30;19.30;1.00
17762;DHT22;9005;48.838;10.112;2023-05-23T08:59:58;19.30;1.00
17762;DHT22;9005;48.838;10.112;2023-05-23T09:02:25;19.40;1.00
17762;DHT22;9005;48.838;10.112;2023-05-23T09:04:52;19.40;1.00
17762;DHT22;9005;48.838;10.112;2023-05-23T09:07:19;19.30;1.00
17762;DHT22;9005;48.838;10.112;2023-05-23T09:09:46;19.40;1.00
17762;DHT22;9005;48.838;10.112;2023-05-23T09:12:14;19.70;1.00
17762;DHT22;9005;48.838;10.112;2023-05-23T09:14:41;20.00;99.90
17762;DHT22;9005;48.838;10.112;2023-05-23T09:17:14;20.20;99.90
17762;DHT22;9005;48.838;10.112;2023-05-23T09:19:41;20.20;99.90
17762;DHT22;9005;48.838;10.112;2023-05-23T09:22:07;20.00;99.90
17762;DHT22;9005;48.838;10.112;2023-05-23T09:24:35;19.90;99.90
17762;DHT22;9005;48.838;10.112;2023-05-23T09:27:04;19.80;99.90
17762;DHT22;9005;48.838;10.112;2023-05-23T09:29:36;19.70;99.90
17762;DHT22;9005;48.838;10.112;2023-05-23T09:32:10;19.70;99.90
17762;DHT22;9005;48.838;10.112;2023-05-23T09:34:39;19.40;99.90
17762;DHT22;9005;48.838;10.112;2023-05-23T09:37:06;19.20;99.90
17762;DHT22;9005;48.838;10.112;2023-05-23T09:39:36;19.10;1.00
17762;DHT22;9005;48.838;10.112;2023-05-23T09:42:04;19.10;1.00
17762;DHT22;9005;48.838;10.112;2023-05-23T09:44:40;19.10;1.00
17762;DHT22;9005;48.838;10.112;2023-05-23T09:47:07;19.30;99.90
17762;DHT22;9005;48.838;10.112;2023-05-23T09:49:33;19.50;99.90
17762;DHT22;9005;48.838;10.112;2023-05-23T09:52:00;19.60;99.90
17762;DHT22;9005;48.838;10.112;2023-05-23T09:54:27;19.50;99.90
17762;DHT22;9005;48.838;10.112;2023-05-23T09:56:54;19.60;99.90
17762;DHT22;9005;48.838;10.112;2023-05-23T09:59:22;19.60;99.90
17762;DHT22;9005;48.838;10.112;2023-05-23T10:01:55;19.70;99.90
17762;DHT22;9005;48.838;10.112;2023-05-23T10:04:24;19.70;99.90
17762;DHT22;9005;48.838;10.112;2023-05-23T10:06:55;19.60;99.90
17762;DHT22;9005;48.838;10.112;2023-05-23T10:09:26;19.40;99.90
17762;DHT22;9005;48.838;10.112;2023-05-23T10:15:13;19.30;99.90
17762;DHT22;9005;48.838;10.112;2023-05-23T10:17:51;19.50;99.90
17762;DHT22;9005;48.838;10.112;2023-05-23T10:20:23;19.70;98.90
17762;DHT22;9005;48.838;10.112;2023-05-23T10:22:51;19.80;99.90
17762;DHT22;9005;48.838;10.112;2023-05-23T10:25:18;20.10;51.20
17762;DHT22;9005;48.838;10.112;2023-05-23T10:27:47;20.40;1.00
17762;DHT22;9005;48.838;10.112;2023-05-23T10:30:15;20.60;1.00
17762;DHT22;9005;48.838;10.112;2023-05-23T10:32:42;20.50;1.00
17762;DHT22;9005;48.838;10.112;2023-05-23T10:35:16;20.40;1.00
17762;DHT22;9005;48.838;10.112;2023-05-23T10:37:54;20.30;1.00
17762;DHT22;9005;48.838;10.112;2023-05-23T10:40:26;20.60;1.00
17762;DHT22;9005;48.838;10.112;2023-05-23T10:42:59;20.60;1.00
17762;DHT22;9005;48.838;10.112;2023-05-23T10:45:28;20.20;1.00
17762;DHT22;9005;48.838;10.112;2023-05-23T10:47:54;20.00;1.00
17762;DHT22;9005;48.838;10.112;2023-05-23T10:50:33;20.00;1.00
17762;DHT22;9005;48.838;10.112;2023-05-23T10:53:00;20.00;1.00
17762;DHT22;9005;48.838;10.112;2023-05-23T10:55:31;20.20;1.00
17762;DHT22;9005;48.838;10.112;2023-05-23T10:58:11;20.30;1.00
17762;DHT22;9005;48.838;10.112;2023-05-23T11:00:38;20.20;1.00
17762;DHT22;9005;48.838;10.112;2023-05-23T11:03:05;20.10;1.00
17762;DHT22;9005;48.838;10.112;2023-05-23T11:05:34;20.10;1.00
17762;DHT22;9005;48.838;10.112;2023-05-23T11:08:09;20.10;1.00
17762;DHT22;9005;48.838;10.112;2023-05-23T11:10:53;20.10;1.00
17762;DHT22;9005;48.838;10.112;2023-05-23T11:13:21;20.10;1.00
17762;DHT22;9005;48.838;10.112;2023-05-23T11:15:48;20.30;99.90
17762;DHT22;9005;48.838;10.112;2023-05-23T11:18:23;20.40;99.90
17762;DHT22;9005;48.838;10.112;2023-05-23T11:20:54;20.40;99.90
17762;DHT22;9005;48.838;10.112;2023-05-23T11:23:21;20.10;99.90
17762;DHT22;9005;48.838;10.112;2023-05-23T11:25:49;19.70;1.00
17762;DHT22;9005;48.838;10.112;2023-05-23T11:28:16;19.60;1.00
17762;DHT22;9005;48.838;10.112;2023-05-23T11:30:45;19.60;1.00
17762;DHT22;9005;48.838;10.112;2023-05-23T11:33:14;19.80;1.00
17762;DHT22;9005;48.838;10.112;2023-05-23T11:35:42;19.80;1.00
17762;DHT22;9005;48.838;10.112;2023-05-23T11:38:10;19.70;1.00
17762;DHT22;9005;48.838;10.112;2023-05-23T11:40:38;19.70;1.00
17762;DHT22;9005;48.838;10.112;2023-05-23T11:43:06;19.80;1.00
17762;DHT22;9005;48.838;10.112;2023-05-23T11:45:34;20.40;99.90
17762;DHT22;9005;48.838;10.112;2023-05-23T11:48:05;21.60;99.90
17762;DHT22;9005;48.838;10.112;2023-05-23T11:50:32;21.90;99.90
17762;DHT22;9005;48.838;10.112;2023-05-23T11:52:59;21.60;99.90
17762;DHT22;9005;48.838;10.112;2023-05-23T11:55:27;21.30;99.90
17762;DHT22;9005;48.838;10.112;2023-05-23T11:57:55;21.20;99.90
17762;DHT22;9005;48.838;10.112;2023-05-23T12:00:22;20.90;99.90
17762;DHT22;9005;48.838;10.112;2023-05-23T12:02:48;21.00;99.90
17762;DHT22;9005;48.838;10.112;2023-05-23T12:05:15;21.20;99.90
17762;DHT22;9005;48.838;10.112;2023-05-23T12:07:43;21.20;99.90
17762;DHT22;9005;48.838;10.112;2023-05-23T12:10:11;21.30;99.90
17762;DHT22;9005;48.838;10.112;2023-05-23T12:12:39;21.20;99.90
17762;DHT22;9005;48.838;10.112;2023-05-23T12:15:08;21.10;99.90
17762;DHT22;9005;48.838;10.112;2023-05-23T12:17:35;21.40;99.90
17762;DHT22;9005;48.838;10.112;2023-05-23T12:20:03;22.10;99.90
17762;DHT22;9005;48.838;10.112;2023-05-23T12:22:30;22.50;86.80
17762;DHT22;9005;48.838;10.112;2023-05-23T12:24:56;22.70;69.40
17762;DHT22;9005;48.838;10.112;2023-05-23T12:27:27;22.90;58.00
17762;DHT22;9005;48.838;10.112;2023-05-23T12:30:07;23.40;40.60
17762;DHT22;9005;48.838;10.112;2023-05-23T12:32:37;24.20;99.90
17762;DHT22;9005;48.838;10.112;2023-05-23T12:35:05;24.50;81.10
17762;DHT22;9005;48.838;10.112;2023-05-23T12:37:32;24.30;58.20
17762;DHT22;9005;48.838;10.112;2023-05-23T12:40:09;23.80;74.80
17762;DHT22;9005;48.838;10.112;2023-05-23T12:42:48;23.80;64.60
17762;DHT22;9005;48.838;10.112;2023-05-23T12:45:17;24.60;89.40
17762;DHT22;9005;48.838;10.112;2023-05-23T12:47:44;25.20;99.90
17762;DHT22;9005;48.838;10.112;2023-05-23T12:50:10;24.80;95.10
17762;DHT22;9005;48.838;10.112;2023-05-23T12:52:38;23.90;97.40
17762;DHT22;9005;48.838;10.112;2023-05-23T12:55:05;23.10;45.00
17762;DHT22;9005;48.838;10.112;2023-05-23T12:57:34;22.60;17.20
17762;DHT22;9005;48.838;10.112;2023-05-23T13:00:01;22.40;21.80
17762;DHT22;9005;48.838;10.112;2023-05-23T13:02:29;22.10;38.10
17762;DHT22;9005;48.838;10.112;2023-05-23T13:04:56;21.90;28.60
17762;DHT22;9005;48.838;10.112;2023-05-23T13:07:22;21.70;59.80
17762;DHT22;9005;48.838;10.112;2023-05-23T13:09:49;21.70;61.90
17762;DHT22;9005;48.838;10.112;2023-05-23T13:12:16;22.30;23.80
17762;DHT22;9005;48.838;10.112;2023-05-23T13:14:43;22.50;12.00
17762;DHT22;9005;48.838;10.112;2023-05-23T13:17:10;22.50;7.90
17762;DHT22;9005;48.838;10.112;2023-05-23T13:19:38;22.30;11.90
17762;DHT22;9005;48.838;10.112;2023-05-23T13:22:05;22.20;32.90
17762;DHT22;9005;48.838;10.112;2023-05-23T13:24:34;22.70;19.30
17762;DHT22;9005;48.838;10.112;2023-05-23T13:27:02;23.20;1.00
17762;DHT22;9005;48.838;10.112;2023-05-23T13:29:28;23.40;1.00
17762;DHT22;9005;48.838;10.112;2023-05-23T13:31:55;23.00;1.00
17762;DHT22;9005;48.838;10.112;2023-05-23T13:34:22;22.50;1.00
17762;DHT22;9005;48.838;10.112;2023-05-23T13:36:50;22.10;11.10
17762;DHT22;9005;48.838;10.112;2023-05-23T13:39:17;21.60;23.60
17762;DHT22;9005;48.838;10.112;2023-05-23T13:41:45;21.20;44.60
17762;DHT22;9005;48.838;10.112;2023-05-23T13:44:12;20.80;57.40
17762;DHT22;9005;48.838;10.112;2023-05-23T13:46:39;20.60;94.20
17762;DHT22;9005;48.838;10.112;2023-05-23T13:49:05;20.50;93.50
17762;DHT22;9005;48.838;10.112;2023-05-23T13:51:32;20.70;97.40
17762;DHT22;9005;48.838;10.112;2023-05-23T13:54:02;20.70;70.00
17762;DHT22;9005;48.838;10.112;2023-05-23T13:56:29;20.80;59.30
17762;DHT22;9005;48.838;10.112;2023-05-23T13:58:56;20.80;36.70
17762;DHT22;9005;48.838;10.112;2023-05-23T14:01:23;20.90;47.80
17762;DHT22;9005;48.838;10.112;2023-05-23T14:03:49;21.10;28.90
17762;DHT22;9005;48.838;10.112;2023-05-23T14:06:16;21.20;42.10
17762;DHT22;9005;48.838;10.112;2023-05-23T14:08:43;21.10;25.20
17762;DHT22;9005;48.838;10.112;2023-05-23T14:11:12;21.00;25.80
17762;DHT22;9005;48.838;10.112;2023-05-23T14:13:38;21.00;21.30
17762;DHT22;9005;48.838;10.112;2023-05-23T14:16:05;20.80;37.40
17762;DHT22;9005;48.838;10.112;2023-05-23T14:18:32;20.50;21.10
17762;DHT22;9005;48.838;10.112;2023-05-23T14:20:59;20.20;44.30
17762;DHT22;9005;48.838;10.112;2023-05-23T14:23:25;19.90;48.40
17762;DHT22;9005;48.838;10.112;2023-05-23T14:25:52;19.80;30.00
17762;DHT22;9005;48.838;10.112;2023-05-23T14:28:20;19.50;48.90
17762;DHT22;9005;48.838;10.112;2023-05-23T14:30:47;19.50;59.60
17762;DHT22;9005;48.838;10.112;2023-05-23T14:33:14;19.40;79.50
17762;DHT22;9005;48.838;10.112;2023-05-23T14:35:41;19.40;90.60
17762;DHT22;9005;48.838;10.112;2023-05-23T14:38:08;19.30;90.10
17762;DHT22;9005;48.838;10.112;2023-05-23T14:40:34;19.20;99.90
17762;DHT22;9005;48.838;10.112;2023-05-23T14:43:01;19.10;85.20
17762;DHT22;9005;48.838;10.112;2023-05-23T14:45:29;18.90;99.30
17762;DHT22;9005;48.838;10.112;2023-05-23T14:47:56;19.00;78.80
17762;DHT22;9005;48.838;10.112;2023-05-23T14:50:24;18.90;90.40
17762;DHT22;9005;48.838;10.112;2023-05-23T14:52:51;19.00;60.90
17762;DHT22;9005;48.838;10.112;2023-05-23T14:55:18;19.10;66.40
17762;DHT22;9005;48.838;10.112;2023-05-23T14:57:44;19.30;61.10
17762;DHT22;9005;48.838;10.112;2023-05-23T15:00:12;19.40;47.80
17762;DHT22;9005;48.838;10.112;2023-05-23T15:02:40;19.60;29.80
17762;DHT22;9005;48.838;10.112;2023-05-23T15:05:07;19.60;49.30
17762;DHT22;9005;48.838;10.112;2023-05-23T15:07:34;19.70;39.10
17762;DHT22;9005;48.838;10.112;2023-05-23T15:10:03;19.70;42.20
17762;DHT22;9005;48.838;10.112;2023-05-23T15:12:30;19.70;64.80
17762;DHT22;9005;48.838;10.112;2023-05-23T15:14:57;19.90;58.40
17762;DHT22;9005;48.838;10.112;2023-05-23T15:17:28;20.00;29.90
17762;DHT22;9005;48.838;10.112;2023-05-23T15:19:56;20.60;43.00
17762;DHT22;9005;48.838;10.112;2023-05-23T15:22:23;21.40;4.20
17762;DHT22;9005;48.838;10.112;2023-05-23T15:24:50;21.90;20.60
17762;DHT22;9005;48.838;10.112;2023-05-23T15:27:17;22.40;22.00
17762;DHT22;9005;48.838;10.112;2023-05-23T15:29:44;22.60;20.50
17762;DHT22;9005;48.838;10.112;2023-05-23T15:32:11;22.30;18.70
17762;DHT22;9005;48.838;10.112;2023-05-23T15:34:38;22.50;39.30
17762;DHT22;9005;48.838;10.112;2023-05-23T15:37:06;22.10;51.40
17762;DHT22;9005;48.838;10.112;2023-05-23T15:39:32;21.50;25.80
17762;DHT22;9005;48.838;10.112;2023-05-23T15:41:59;20.80;30.70
17762;DHT22;9005;48.838;10.112;2023-05-23T15:44:26;20.50;52.30
17762;DHT22;9005;48.838;10.112;2023-05-23T15:46:53;20.10;62.90
17762;DHT22;9005;48.838;10.112;2023-05-23T15:49:20;19.90;85.50
17762;DHT22;9005;48.838;10.112;2023-05-23T15:51:46;19.80;90.60
17762;DHT22;9005;48.838;10.112;2023-05-23T15:54:15;19.90;89.30
17762;DHT22;9005;48.838;10.112;2023-05-23T15:56:41;20.50;45.60
17762;DHT22;9005;48.838;10.112;2023-05-23T15:59:08;21.10;23.40
17762;DHT22;9005;48.838;10.112;2023-05-23T16:01:36;21.20;2.80
17762;DHT22;9005;48.838;10.112;2023-05-23T16:04:02;20.60;20.00
17762;DHT22;9005;48.838;10.112;2023-05-23T16:06:29;20.20;51.70
17762;DHT22;9005;48.838;10.112;2023-05-23T16:08:56;19.80;71.30